createdAt,value
2024-04-10T00:01:42.563Z,3.95
2024-04-10T00:04:18.125Z,3.90
2024-04-10T00:06:51.322Z,4.50
2024-04-10T00:09:26.731Z,4.20
2024-04-10T00:11:59.629Z,4.22
2024-04-10T00:14:41.030Z,4.15
2024-04-10T00:17:13.867Z,4.93
2024-04-10T00:19:54.215Z,4.43
2024-04-10T00:22:28.286Z,4.03
2024-04-10T00:25:04.481Z,4.05
2024-04-10T00:27:37.279Z,4.18
2024-04-10T00:30:15.571Z,3.63
2024-04-10T00:32:48.738Z,4.03
2024-04-10T00:35:24.326Z,4.20
2024-04-10T00:37:57.250Z,3.70
2024-04-10T00:40:32.894Z,3.92
2024-04-10T00:43:05.868Z,3.60
2024-04-10T00:45:46.554Z,3.35
2024-04-10T00:48:19.615Z,3.25
2024-04-10T00:50:56.989Z,3.17
2024-04-10T00:53:30.249Z,3.58
2024-04-10T00:56:06.796Z,3.60
2024-04-10T00:58:40.381Z,3.72
2024-04-10T01:01:19.330Z,3.58
2024-04-10T01:03:52.276Z,3.90
2024-04-10T01:06:32.900Z,3.42
2024-04-10T01:09:05.754Z,4.30
2024-04-10T01:11:41.743Z,4.00
2024-04-10T01:14:14.555Z,3.90
2024-04-10T01:16:53.740Z,3.33
2024-04-10T01:19:26.637Z,3.75
2024-04-10T01:22:02.104Z,4.00
2024-04-10T01:24:38.048Z,3.63
2024-04-10T01:27:13.443Z,4.05
2024-04-10T01:29:46.138Z,4.20
2024-04-10T01:32:21.629Z,3.75
2024-04-10T01:34:54.393Z,3.65
2024-04-10T01:37:29.855Z,3.42
2024-04-10T01:40:05.815Z,3.63
2024-04-10T01:42:41.447Z,3.47
2024-04-10T01:45:14.222Z,4.40
2024-04-10T01:47:49.878Z,4.38
2024-04-10T01:50:22.755Z,3.60
2024-04-10T01:52:58.189Z,3.20
2024-04-10T01:55:33.621Z,3.53
2024-04-10T01:58:09.526Z,3.88
2024-04-10T02:00:42.316Z,3.22
2024-04-10T02:03:17.768Z,3.67
2024-04-10T02:05:50.618Z,3.58
2024-04-10T02:08:26.043Z,3.53
2024-04-10T02:11:21.245Z,3.83
2024-04-10T02:13:57.054Z,3.53
2024-04-10T02:16:30.013Z,3.45
2024-04-10T02:19:05.624Z,3.67
2024-04-10T02:21:39.857Z,3.17
2024-04-10T02:24:15.239Z,2.90
2024-04-10T02:26:50.649Z,3.03
2024-04-10T02:29:26.161Z,4.15
2024-04-10T02:31:59.017Z,3.53
2024-04-10T02:34:35.749Z,3.25
2024-04-10T02:37:09.931Z,3.47
2024-04-10T02:39:45.434Z,3.17
2024-04-10T02:42:23.473Z,3.33
2024-04-10T02:44:56.176Z,3.67
2024-04-10T02:47:31.665Z,4.25
2024-04-10T02:50:06.081Z,3.33
2024-04-10T02:52:41.548Z,3.40
2024-04-10T02:55:14.536Z,3.72
2024-04-10T02:57:52.607Z,3.90
2024-04-10T03:00:25.318Z,3.70
2024-04-10T03:03:00.970Z,3.70
2024-04-10T03:05:33.820Z,3.95
2024-04-10T03:08:09.956Z,3.85
2024-04-10T03:10:43.145Z,3.67
2024-04-10T03:13:21.672Z,3.72
2024-04-10T03:15:54.457Z,3.40
2024-04-10T03:18:29.995Z,3.70
2024-04-10T03:21:02.961Z,3.95
2024-04-10T03:23:38.543Z,3.20
2024-04-10T03:26:11.479Z,3.42
2024-04-10T03:28:50.275Z,3.50
2024-04-10T03:31:23.071Z,3.35
2024-04-10T03:33:58.653Z,3.42
2024-04-10T03:36:31.429Z,3.60
2024-04-10T03:39:06.973Z,3.92
2024-04-10T03:41:40.002Z,3.40
2024-04-10T03:44:19.953Z,3.42
2024-04-10T03:46:55.436Z,3.63
2024-04-10T03:49:31.042Z,3.40
2024-04-10T03:52:06.746Z,3.20
2024-04-10T03:54:39.741Z,3.25
2024-04-10T03:57:15.207Z,3.72
2024-04-10T03:59:50.925Z,3.28
2024-04-10T04:02:26.410Z,4.07
2024-04-10T04:04:59.945Z,3.90
2024-04-10T04:07:35.337Z,3.50
2024-04-10T04:10:08.674Z,4.22
2024-04-10T04:12:44.023Z,4.60
2024-04-10T04:15:19.412Z,5.55
2024-04-10T04:17:55.228Z,5.10
2024-04-10T04:20:28.127Z,4.85
2024-04-10T04:23:03.624Z,5.78
2024-04-10T04:25:36.751Z,6.18
2024-04-10T04:28:12.113Z,6.40
2024-04-10T04:30:50.771Z,6.10
2024-04-10T04:33:26.315Z,6.28
2024-04-10T04:35:59.204Z,5.38
2024-04-10T04:38:34.646Z,4.70
2024-04-10T04:41:07.699Z,4.15
2024-04-10T04:43:43.389Z,4.55
2024-04-10T04:46:21.460Z,5.05
2024-04-10T04:48:56.914Z,6.05
2024-04-10T04:51:29.963Z,5.75
2024-04-10T04:54:05.685Z,6.18
2024-04-10T04:56:38.479Z,5.75
2024-04-10T04:59:14.136Z,5.57
2024-04-10T05:01:49.654Z,5.50
2024-04-10T05:04:41.150Z,5.35
2024-04-10T05:07:16.599Z,6.05
2024-04-10T05:09:53.205Z,5.68
2024-04-10T05:12:25.958Z,5.32
2024-04-10T05:15:01.537Z,5.68
2024-04-10T05:17:37.322Z,5.68
2024-04-10T05:20:18.171Z,6.35
2024-04-10T05:23:03.505Z,5.93
2024-04-10T05:25:39.584Z,5.32
2024-04-10T05:28:12.587Z,5.30
2024-04-10T05:30:51.067Z,5.10
2024-04-10T05:33:31.682Z,5.28
2024-04-10T05:36:08.677Z,6.20
2024-04-10T05:38:44.688Z,4.90
2024-04-10T05:41:20.048Z,5.57
2024-04-10T05:43:52.831Z,5.70
2024-04-10T05:46:28.378Z,5.43
2024-04-10T05:49:05.245Z,5.30
2024-04-10T05:51:41.101Z,4.43
2024-04-10T05:54:14.629Z,4.97
2024-04-10T05:56:50.672Z,4.30
2024-04-10T05:59:25.516Z,4.72
2024-04-10T06:02:01.167Z,5.07
2024-04-10T06:04:37.427Z,4.68
2024-04-10T06:07:12.923Z,4.20
2024-04-10T06:09:46.026Z,5.38
2024-04-10T06:12:21.598Z,4.80
2024-04-10T06:14:55.982Z,5.18
2024-04-10T06:17:31.466Z,4.63
2024-04-10T06:20:11.546Z,4.75
2024-04-10T06:22:47.100Z,4.43
2024-04-10T06:25:19.913Z,4.18
2024-04-10T06:27:55.392Z,3.90
2024-04-10T06:30:30.916Z,4.25
2024-04-10T06:33:03.947Z,4.10
2024-04-10T06:35:42.210Z,3.97
2024-04-10T06:38:15.158Z,3.53
2024-04-10T06:40:58.530Z,3.55
2024-04-10T06:43:33.204Z,3.03
2024-04-10T06:46:10.483Z,3.13
2024-04-10T06:48:43.475Z,3.40
2024-04-10T06:51:21.663Z,3.58
2024-04-10T06:53:54.572Z,3.10
2024-04-10T06:56:30.259Z,3.35
2024-04-10T06:59:05.897Z,3.22
2024-04-10T07:01:41.755Z,3.50
2024-04-10T07:04:17.383Z,3.78
2024-04-10T07:06:52.948Z,3.78
2024-04-10T07:09:28.760Z,3.90
2024-04-10T07:12:01.693Z,3.63
2024-04-10T07:14:38.412Z,4.70
2024-04-10T07:17:11.370Z,5.47
2024-04-10T07:19:46.827Z,5.25
2024-04-10T07:22:22.239Z,6.20
2024-04-10T07:24:57.799Z,9.48
2024-04-10T07:27:30.529Z,7.40
2024-04-10T07:30:05.995Z,10.43
2024-04-10T07:32:38.969Z,10.20
2024-04-10T07:35:14.510Z,10.80
2024-04-10T07:37:50.002Z,9.88
2024-04-10T07:40:25.424Z,10.10
2024-04-10T07:42:58.175Z,9.45
2024-04-10T07:45:33.627Z,9.70
2024-04-10T07:48:07.295Z,8.07
2024-04-10T07:50:43.230Z,9.25
2024-04-10T07:53:18.887Z,9.18
2024-04-10T07:55:54.391Z,9.30
2024-04-10T07:58:27.146Z,8.68
2024-04-10T08:01:03.105Z,9.05
2024-04-10T08:03:36.879Z,9.07
2024-04-10T08:06:13.636Z,11.45
2024-04-10T08:08:49.029Z,31.13
2024-04-10T08:11:25.045Z,9.05
2024-04-10T08:13:57.924Z,9.70
2024-04-10T08:16:34.049Z,9.77
2024-04-10T08:19:07.724Z,9.60
2024-04-10T08:22:16.281Z,8.98
2024-04-10T08:24:52.039Z,9.30
2024-04-10T08:27:27.394Z,8.68
2024-04-10T08:30:00.228Z,9.30
2024-04-10T08:32:36.439Z,9.35
2024-04-10T08:35:09.894Z,8.82
2024-04-10T08:37:45.484Z,9.32
2024-04-10T08:40:21.311Z,9.20
2024-04-10T08:42:57.807Z,9.00
2024-04-10T08:45:33.105Z,9.02
2024-04-10T08:48:09.690Z,9.32
2024-04-10T08:50:43.464Z,9.10
2024-04-10T08:53:21.367Z,8.68
2024-04-10T08:56:07.972Z,8.57
2024-04-10T08:58:46.305Z,8.15
2024-04-10T09:01:26.638Z,8.55
2024-04-10T09:04:10.541Z,8.35
2024-04-10T09:06:43.889Z,7.60
2024-04-10T09:09:29.484Z,7.13
2024-04-10T09:12:05.315Z,8.07
2024-04-10T09:14:40.718Z,7.32
2024-04-10T09:17:18.556Z,7.78
2024-04-10T09:19:53.985Z,7.85
2024-04-10T09:22:26.929Z,8.43
2024-04-10T09:25:13.867Z,9.43
2024-04-10T09:27:57.687Z,8.18
2024-04-10T09:30:33.199Z,7.95
2024-04-10T09:33:06.788Z,7.80
2024-04-10T09:35:43.296Z,7.75
2024-04-10T09:38:20.893Z,8.48
2024-04-10T09:41:02.324Z,8.00
2024-04-10T09:43:46.199Z,8.05
2024-04-10T09:46:20.277Z,8.60
2024-04-10T09:49:00.425Z,7.30
2024-04-10T09:51:33.499Z,8.00
2024-04-10T09:54:10.126Z,7.47
2024-04-10T09:56:45.480Z,8.32
2024-04-10T09:59:23.885Z,8.27
2024-04-10T10:02:08.755Z,7.63
2024-04-10T10:04:44.295Z,7.97
2024-04-10T10:07:23.237Z,7.53
2024-04-10T10:10:09.326Z,8.35
2024-04-10T10:12:42.114Z,8.73
2024-04-10T10:15:25.435Z,7.63
2024-04-10T10:18:02.864Z,8.65
2024-04-10T10:20:40.679Z,7.93
2024-04-10T10:23:22.018Z,7.00
2024-04-10T10:25:57.560Z,6.80
2024-04-10T10:28:30.905Z,7.03
2024-04-10T10:31:15.687Z,5.93
2024-04-10T10:33:49.862Z,5.57
2024-04-10T10:36:25.382Z,4.50
2024-04-10T10:39:02.269Z,4.15
2024-04-10T10:43:15.251Z,4.00
2024-04-10T10:45:50.962Z,3.00
2024-04-10T10:48:27.949Z,3.38
2024-04-10T10:51:01.041Z,3.58
2024-04-10T10:53:37.031Z,3.22
2024-04-10T10:56:09.800Z,3.15
2024-04-10T10:58:47.920Z,3.30
2024-04-10T11:01:21.531Z,3.38
2024-04-10T11:03:58.702Z,3.90
2024-04-10T11:06:31.886Z,3.63
2024-04-10T11:09:11.030Z,3.70
2024-04-10T11:11:44.999Z,4.10
2024-04-10T11:14:28.552Z,3.65
2024-04-10T11:17:02.386Z,4.32
2024-04-10T11:19:47.472Z,3.65
2024-04-10T11:22:26.403Z,4.63
2024-04-10T11:25:01.973Z,4.38
2024-04-10T11:27:34.813Z,4.70
2024-04-10T11:30:14.053Z,4.43
2024-04-10T11:32:46.909Z,4.35
2024-04-10T11:35:22.512Z,4.32
2024-04-10T11:37:56.436Z,4.55
2024-04-10T11:40:31.776Z,3.90
2024-04-10T11:43:05.273Z,4.13
2024-04-10T11:54:52.738Z,7.43
2024-04-10T11:57:25.715Z,6.55
2024-04-10T12:00:01.601Z,6.00
2024-04-10T12:02:35.086Z,5.50
2024-04-10T12:05:11.299Z,5.63
2024-04-10T12:07:46.564Z,5.15
2024-04-10T12:10:24.953Z,5.78
2024-04-10T12:13:00.605Z,5.57
2024-04-10T12:15:33.475Z,6.13
2024-04-10T12:18:09.505Z,5.28
2024-04-10T12:20:42.274Z,6.13
2024-04-10T12:23:17.703Z,6.38
2024-04-10T12:25:53.345Z,5.57
2024-04-10T12:28:28.778Z,5.40
2024-04-10T12:31:03.288Z,5.82
2024-04-10T12:33:39.481Z,5.93
2024-04-10T12:36:30.934Z,5.97
2024-04-10T12:39:07.594Z,5.10
2024-04-10T12:41:48.584Z,5.57
2024-04-10T12:44:25.375Z,5.13
2024-04-10T12:47:05.831Z,5.30
2024-04-10T12:49:50.692Z,5.07
2024-04-10T12:52:26.525Z,5.07
2024-04-10T12:55:02.366Z,5.22
2024-04-10T12:57:38.654Z,5.38
2024-04-10T13:00:15.437Z,5.82
2024-04-10T13:02:53.450Z,5.88
2024-04-10T13:05:26.838Z,5.75
2024-04-10T13:08:03.414Z,5.53
2024-04-10T13:10:36.355Z,6.22
2024-04-10T13:13:23.716Z,6.05
2024-04-10T13:16:09.505Z,6.20
2024-04-10T13:18:44.015Z,5.53
2024-04-10T13:21:23.072Z,6.18
2024-04-10T13:23:55.850Z,6.88
2024-04-10T13:26:31.394Z,6.82
2024-04-10T13:29:06.850Z,6.82
2024-04-10T13:31:42.250Z,6.68
2024-04-10T13:34:15.223Z,6.32
2024-04-10T13:36:51.244Z,7.20
2024-04-10T13:39:23.998Z,6.68
2024-04-10T13:41:59.455Z,7.18
2024-04-10T13:44:35.058Z,7.88
2024-04-10T13:47:10.582Z,7.47
2024-04-10T13:49:43.622Z,7.75
2024-04-10T13:52:19.037Z,8.52
2024-04-10T13:54:51.848Z,8.05
2024-04-10T13:57:27.586Z,8.95
2024-04-10T14:00:07.686Z,8.20
2024-04-10T14:02:47.779Z,8.75
2024-04-10T14:05:21.251Z,8.82
2024-04-10T14:07:58.352Z,8.85
2024-04-10T14:10:35.648Z,9.25
2024-04-10T14:13:11.586Z,10.48
2024-04-10T14:15:53.324Z,9.40
2024-04-10T14:18:36.181Z,10.00
2024-04-10T14:21:10.352Z,9.93
2024-04-10T14:23:50.107Z,9.40
2024-04-10T14:26:23.125Z,11.13
2024-04-10T14:28:58.617Z,10.68
2024-04-10T14:31:34.067Z,11.55
2024-04-10T14:34:10.099Z,10.98
2024-04-10T14:36:43.693Z,11.77
2024-04-10T14:39:19.361Z,11.15
2024-04-10T14:41:54.366Z,11.77
2024-04-10T14:44:44.322Z,10.63
2024-04-10T14:47:20.005Z,13.27
2024-04-10T14:49:55.782Z,11.52
2024-04-10T14:52:28.619Z,11.98
2024-04-10T14:55:04.109Z,11.23
2024-04-10T14:57:36.959Z,11.35
2024-04-10T15:00:13.591Z,11.85
2024-04-10T15:02:49.146Z,11.27
2024-04-10T15:05:24.774Z,12.18
2024-04-10T15:07:58.641Z,11.10
2024-04-10T15:10:44.124Z,10.95
2024-04-10T15:13:17.379Z,11.52
2024-04-10T15:15:55.087Z,11.73
2024-04-10T15:18:30.813Z,9.90
2024-04-10T15:21:06.509Z,10.55
2024-04-10T15:23:39.975Z,10.85
2024-04-10T15:26:15.980Z,10.38
2024-04-10T15:28:48.948Z,9.75
2024-04-10T15:31:24.893Z,9.65
2024-04-10T15:34:00.703Z,11.82
2024-04-10T15:36:36.504Z,9.82
2024-04-10T15:39:09.305Z,10.65
2024-04-10T15:41:45.632Z,9.50
2024-04-10T15:44:18.492Z,9.60
2024-04-10T15:46:53.951Z,11.05
2024-04-10T15:49:29.538Z,9.73
2024-04-10T15:52:17.865Z,10.18
2024-04-10T15:54:59.645Z,9.32
2024-04-10T15:57:36.455Z,8.63
2024-04-10T16:00:11.009Z,9.05
2024-04-10T16:02:48.016Z,9.73
2024-04-10T16:05:29.619Z,9.45
2024-04-10T16:08:06.198Z,9.80
2024-04-10T16:10:39.315Z,9.77
2024-04-10T16:13:15.476Z,9.38
2024-04-10T16:15:48.562Z,8.98
2024-04-10T16:18:24.144Z,9.93
2024-04-10T16:21:05.565Z,9.98
2024-04-10T16:26:16.202Z,8.32
2024-04-10T16:28:52.781Z,9.57
2024-04-10T16:31:25.951Z,9.07
2024-04-10T16:34:03.650Z,10.23
2024-04-10T16:36:42.959Z,10.88
2024-04-10T16:39:18.774Z,10.75
2024-04-10T16:41:55.320Z,10.57
2024-04-10T16:44:31.088Z,10.95
2024-04-10T16:47:04.918Z,10.70
2024-04-10T16:49:40.351Z,10.85
2024-04-10T16:52:16.167Z,10.88
2024-04-10T16:54:55.183Z,11.00
2024-04-10T16:57:28.060Z,12.32
2024-04-10T17:00:04.352Z,10.85
2024-04-10T17:02:37.439Z,10.55
2024-04-10T17:05:13.165Z,10.18
2024-04-10T17:07:50.412Z,10.27
2024-04-10T17:10:26.535Z,11.32
2024-04-10T17:12:59.255Z,12.18
2024-04-10T17:15:35.985Z,11.63
2024-04-10T17:18:30.934Z,10.70
2024-04-10T17:21:27.492Z,12.45
2024-04-10T17:24:05.869Z,12.50
2024-04-10T17:26:42.649Z,11.88
2024-04-10T17:29:23.029Z,11.77
2024-04-10T17:31:57.850Z,12.98
2024-04-10T17:34:33.484Z,11.45
2024-04-10T17:37:06.337Z,11.20
2024-04-10T17:39:45.523Z,12.85
2024-04-10T17:42:18.360Z,11.73
2024-04-10T17:44:53.907Z,11.98
2024-04-10T17:47:27.023Z,11.77
2024-04-10T17:50:03.093Z,12.07
2024-04-10T17:52:37.637Z,13.50
2024-04-10T17:55:15.804Z,12.57
2024-04-10T17:58:07.471Z,12.73
2024-04-10T18:00:44.039Z,9.80
2024-04-10T18:03:18.670Z,12.13
2024-04-10T18:05:54.203Z,11.57
2024-04-10T18:08:27.027Z,11.95
2024-04-10T18:11:05.553Z,11.10
2024-04-10T18:13:39.743Z,11.52
2024-04-10T18:16:15.459Z,11.70
2024-04-10T18:18:48.783Z,12.43
2024-04-10T18:21:24.268Z,11.45
2024-04-10T18:23:57.023Z,10.98
2024-04-10T18:26:36.884Z,10.55
2024-04-10T18:29:12.529Z,11.15
2024-04-10T18:31:48.027Z,12.07
2024-04-10T18:34:21.053Z,12.73
2024-04-10T18:36:58.645Z,10.38
2024-04-10T18:39:31.589Z,11.27
2024-04-10T18:42:10.386Z,9.70
2024-04-10T18:44:43.174Z,10.32
2024-04-10T18:47:18.725Z,10.73
2024-04-10T18:49:53.356Z,9.18
2024-04-10T18:52:28.880Z,10.50
2024-04-10T18:55:01.842Z,10.90
2024-04-10T18:57:40.834Z,10.05
2024-04-10T19:00:14.095Z,10.35
2024-04-10T19:02:50.027Z,10.18
2024-04-10T19:05:22.925Z,9.70
2024-04-10T19:07:59.793Z,9.10
2024-04-10T19:10:32.555Z,9.32
2024-04-10T19:13:10.761Z,10.23
2024-04-10T19:15:46.489Z,9.10
2024-04-10T19:18:22.355Z,9.73
2024-04-10T19:20:55.340Z,8.13
2024-04-10T19:23:30.920Z,6.95
2024-04-10T19:26:05.160Z,8.57
2024-04-10T19:28:43.264Z,8.85
2024-04-10T19:31:16.122Z,8.40
2024-04-10T19:33:52.693Z,8.57
2024-04-10T19:36:26.349Z,8.93
2024-04-10T19:39:02.005Z,8.50
2024-04-10T19:41:34.960Z,8.98
2024-04-10T19:44:13.190Z,7.82
2024-04-10T19:46:47.346Z,8.25
2024-04-10T19:49:23.138Z,8.15
2024-04-10T19:51:56.002Z,7.65
2024-04-10T19:54:31.367Z,7.50
2024-04-10T19:57:04.745Z,7.75
2024-04-10T19:59:42.844Z,8.43
2024-04-10T20:02:15.686Z,8.20
2024-04-10T20:04:51.415Z,7.63
2024-04-10T20:07:24.599Z,7.28
2024-04-10T20:10:00.045Z,8.77
2024-04-10T20:12:33.143Z,7.97
2024-04-10T20:15:12.108Z,9.30
2024-04-10T20:17:45.140Z,8.00
2024-04-10T20:20:20.957Z,6.05
2024-04-10T20:22:53.755Z,8.30
2024-04-10T20:25:29.180Z,6.88
2024-04-10T20:28:05.148Z,7.32
2024-04-10T20:30:43.213Z,8.45
2024-04-10T20:33:15.943Z,8.02
2024-04-10T20:35:56.739Z,7.60
2024-04-10T20:38:29.776Z,7.75
2024-04-10T20:41:07.965Z,7.00
2024-04-10T20:43:42.950Z,7.25
2024-04-10T20:46:21.125Z,7.45
2024-04-10T20:48:54.085Z,7.63
2024-04-10T20:51:29.691Z,8.00
2024-04-10T20:54:02.692Z,8.50
2024-04-10T20:56:38.188Z,8.48
2024-04-10T20:59:10.936Z,7.65
2024-04-10T21:01:52.403Z,7.68
2024-04-10T21:04:26.033Z,8.52
2024-04-10T21:07:16.980Z,7.00
2024-04-10T21:10:08.573Z,6.97
2024-04-10T21:12:59.744Z,8.45
2024-04-10T21:15:52.718Z,7.00
2024-04-10T21:21:38.781Z,7.72
2024-04-10T21:24:29.679Z,6.63
2024-04-10T21:27:20.612Z,7.40
2024-04-10T21:30:12.695Z,8.20
2024-04-10T21:33:04.059Z,8.38
2024-04-10T21:36:00.976Z,7.43
2024-04-10T21:38:52.555Z,7.80
2024-04-10T21:41:43.943Z,8.30
2024-04-10T21:44:34.973Z,8.52
2024-04-10T21:47:26.983Z,8.60
2024-04-10T21:50:18.291Z,8.10
2024-04-10T21:53:12.590Z,7.55
2024-04-10T21:56:04.310Z,8.35
2024-04-10T21:58:56.265Z,8.38
2024-04-10T22:02:00.590Z,8.52
2024-04-10T22:04:58.339Z,8.57
2024-04-10T22:07:53.871Z,8.52
2024-04-10T22:10:32.325Z,8.52
2024-04-10T22:13:07.947Z,8.35
2024-04-10T22:15:49.604Z,8.13
2024-04-10T22:18:40.782Z,7.85
2024-04-10T22:21:32.116Z,7.65
2024-04-10T22:24:08.236Z,7.88
2024-04-10T22:26:46.540Z,7.95
2024-04-10T22:29:22.085Z,8.10
2024-04-10T22:31:58.062Z,7.93
2024-04-10T22:34:31.079Z,7.38
2024-04-10T22:37:08.223Z,9.20
2024-04-10T22:39:41.409Z,7.22
2024-04-10T22:42:19.439Z,7.53
2024-04-10T22:44:52.578Z,7.65
2024-04-10T22:47:28.034Z,7.05
2024-04-10T22:50:00.770Z,8.40
2024-04-10T22:52:36.348Z,7.22
2024-04-10T22:55:09.446Z,7.80
2024-04-10T22:57:47.956Z,8.43
2024-04-10T23:00:20.990Z,8.70
2024-04-10T23:02:56.571Z,8.45
2024-04-10T23:05:44.762Z,8.18
2024-04-10T23:08:30.880Z,8.55
2024-04-10T23:11:05.771Z,8.93
2024-04-10T23:13:43.862Z,7.50
2024-04-10T23:16:16.702Z,7.32
2024-04-10T23:19:06.941Z,8.35
2024-04-10T23:21:46.722Z,9.73
2024-04-10T23:24:22.123Z,8.85
2024-04-10T23:26:54.818Z,9.05
2024-04-10T23:29:33.045Z,8.05
2024-04-10T23:32:08.177Z,8.13
2024-04-10T23:34:43.789Z,9.25
2024-04-10T23:37:16.830Z,8.85
2024-04-10T23:39:52.227Z,8.32
2024-04-10T23:42:25.038Z,8.25
2024-04-10T23:45:03.133Z,9.15
2024-04-10T23:47:36.086Z,8.40
2024-04-10T23:50:11.714Z,8.15
2024-04-10T23:52:44.449Z,9.10
2024-04-10T23:55:20.054Z,8.95
2024-04-10T23:57:52.805Z,7.85
